createdAt,value
2022-10-30T00:01:37.396Z,85.32
2022-10-30T00:03:39.333Z,85.63
2022-10-30T00:05:43.311Z,85.12
2022-10-30T00:07:45.121Z,85.40
2022-10-30T00:09:47.068Z,85.67
2022-10-30T00:11:48.886Z,85.68
2022-10-30T00:13:50.827Z,85.72
2022-10-30T00:15:54.078Z,85.84
2022-10-30T00:18:02.786Z,85.91
2022-10-30T00:20:05.427Z,85.83
2022-10-30T00:24:08.376Z,85.81
2022-10-30T00:26:10.263Z,85.86
2022-10-30T00:28:12.269Z,85.58
2022-10-30T00:30:15.655Z,85.70
2022-10-30T00:32:17.568Z,85.82
2022-10-30T00:34:19.718Z,85.86
2022-10-30T00:36:23.148Z,85.85
2022-10-30T00:38:25.028Z,85.77
2022-10-30T00:40:26.899Z,85.72
2022-10-30T00:42:32.671Z,85.96
2022-10-30T00:44:40.858Z,85.93
2022-10-30T00:46:42.893Z,86.02
2022-10-30T00:48:48.688Z,86.02
2022-10-30T00:50:53.676Z,85.65
2022-10-30T00:53:02.128Z,85.74
2022-10-30T00:55:12.183Z,86.01
2022-10-30T00:57:14.164Z,86.02
2022-10-30T00:59:20.924Z,85.39
2022-10-30T01:01:26.315Z,85.68
2022-10-30T01:03:29.881Z,85.73
2022-10-30T01:05:33.862Z,85.64
2022-10-30T01:07:35.708Z,85.83
2022-10-30T01:09:39.863Z,85.73
2022-10-30T01:11:41.939Z,85.64
2022-10-30T01:13:46.079Z,85.58
2022-10-30T01:16:04.619Z,85.69
2022-10-30T01:18:21.502Z,86.01
2022-10-30T01:20:43.244Z,85.31
2022-10-30T01:23:06.321Z,85.66
2022-10-30T01:25:32.928Z,85.36
2022-10-30T01:27:43.929Z,85.39
2022-10-30T01:30:04.719Z,85.33
2022-10-30T01:32:12.424Z,85.36
2022-10-30T01:34:57.631Z,85.30
2022-10-30T01:37:32.900Z,85.41
2022-10-30T01:39:40.132Z,85.75
2022-10-30T01:41:42.230Z,85.30
2022-10-30T01:43:47.801Z,85.39
2022-10-30T01:46:10.944Z,85.73
2022-10-30T01:48:15.954Z,85.63
2022-10-30T01:50:27.687Z,85.85
2022-10-30T01:52:41.671Z,85.57
2022-10-30T01:54:57.910Z,85.71
2022-10-30T01:57:27.557Z,85.93
2022-10-30T01:59:42.147Z,85.91
2022-10-30T02:01:45.242Z,85.97
2022-10-30T02:03:47.948Z,86.07
2022-10-30T02:05:52.542Z,85.95
2022-10-30T02:07:54.820Z,86.17
2022-10-30T02:09:56.999Z,85.83
2022-10-30T02:12:00.726Z,85.96
2022-10-30T02:14:06.536Z,86.21
2022-10-30T02:16:09.530Z,85.77
2022-10-30T02:18:11.436Z,85.72
2022-10-30T02:20:20.690Z,86.10
2022-10-30T02:22:22.824Z,85.89
2022-10-30T02:24:25.743Z,86.12
2022-10-30T02:26:27.510Z,85.85
2022-10-30T02:28:29.359Z,86.12
2022-10-30T02:30:31.487Z,86.01
2022-10-30T02:32:34.110Z,85.81
2022-10-30T02:34:36.981Z,85.90
2022-10-30T02:36:38.799Z,85.41
2022-10-30T02:38:40.650Z,85.48
2022-10-30T02:40:42.613Z,85.92
2022-10-30T02:42:44.623Z,85.39
2022-10-30T02:44:46.477Z,85.34
2022-10-30T02:46:48.367Z,85.27
2022-10-30T02:48:50.467Z,85.58
2022-10-30T02:50:52.348Z,84.93
2022-10-30T02:52:54.375Z,84.88
2022-10-30T02:54:56.270Z,85.11
2022-10-30T02:56:58.194Z,85.09
2022-10-30T02:59:00.057Z,85.05
2022-10-30T03:01:13.780Z,85.20
2022-10-30T03:03:18.651Z,84.98
2022-10-30T03:05:23.741Z,85.18
2022-10-30T03:07:25.543Z,85.20
2022-10-30T03:09:27.468Z,85.03
2022-10-30T03:11:29.325Z,85.12
2022-10-30T03:13:32.710Z,84.96
2022-10-30T03:15:34.502Z,84.85
2022-10-30T03:17:36.504Z,84.99
2022-10-30T03:19:41.199Z,85.12
2022-10-30T03:21:43.121Z,85.48
2022-10-30T03:23:46.302Z,85.16
2022-10-30T03:25:48.195Z,85.19
2022-10-30T03:27:50.072Z,85.35
2022-10-30T03:29:51.965Z,85.51
2022-10-30T03:31:54.752Z,85.22
2022-10-30T03:33:56.544Z,85.59
2022-10-30T03:35:58.839Z,85.39
2022-10-30T03:38:00.694Z,85.55
2022-10-30T03:40:03.796Z,85.44
2022-10-30T03:42:05.826Z,85.69
2022-10-30T03:44:08.722Z,85.85
2022-10-30T03:46:11.608Z,86.09
2022-10-30T03:48:13.474Z,86.14
2022-10-30T03:50:15.394Z,85.86
2022-10-30T03:52:17.242Z,86.21
2022-10-30T03:54:19.164Z,85.83
2022-10-30T03:56:21.045Z,86.00
2022-10-30T03:58:22.863Z,85.78
2022-10-30T04:00:24.872Z,86.23
2022-10-30T04:02:26.803Z,86.17
2022-10-30T04:04:28.709Z,86.13
2022-10-30T04:06:30.634Z,86.55
2022-10-30T04:08:32.564Z,86.27
2022-10-30T04:10:36.520Z,86.59
2022-10-30T04:12:38.906Z,86.16
2022-10-30T04:14:41.826Z,86.29
2022-10-30T04:16:43.706Z,86.23
2022-10-30T04:18:46.568Z,86.47
2022-10-30T04:20:48.676Z,86.38
2022-10-30T04:23:04.114Z,86.35
2022-10-30T04:25:06.495Z,86.24
2022-10-30T04:27:08.567Z,86.57
2022-10-30T04:29:10.754Z,86.39
2022-10-30T04:31:12.591Z,86.23
2022-10-30T04:33:15.756Z,86.42
2022-10-30T04:35:19.656Z,86.30
2022-10-30T04:37:21.537Z,86.21
2022-10-30T04:39:23.436Z,86.26
2022-10-30T04:41:25.449Z,86.03
2022-10-30T04:43:27.428Z,85.87
2022-10-30T04:45:29.421Z,85.97
2022-10-30T04:47:34.239Z,85.94
2022-10-30T04:49:36.192Z,86.07
2022-10-30T04:51:37.999Z,86.00
2022-10-30T04:53:39.955Z,85.99
2022-10-30T04:55:42.649Z,85.87
2022-10-30T04:57:45.802Z,86.08
2022-10-30T04:59:47.718Z,85.91
2022-10-30T05:01:49.689Z,86.32
2022-10-30T05:03:54.730Z,86.00
2022-10-30T05:06:22.204Z,85.64
2022-10-30T05:08:24.141Z,86.23
2022-10-30T05:10:26.099Z,86.31
2022-10-30T05:12:28.964Z,86.10
2022-10-30T05:14:32.515Z,85.91
2022-10-30T05:16:34.554Z,85.78
2022-10-30T05:18:36.491Z,85.60
2022-10-30T05:20:38.344Z,85.58
2022-10-30T05:22:40.184Z,85.56
2022-10-30T05:24:42.098Z,85.72
2022-10-30T05:26:44.238Z,85.54
2022-10-30T05:28:46.192Z,85.49
2022-10-30T05:30:48.039Z,85.80
2022-10-30T05:32:49.807Z,85.56
2022-10-30T05:34:51.721Z,85.33
2022-10-30T05:36:54.608Z,85.71
2022-10-30T05:38:56.488Z,85.61
2022-10-30T05:40:58.411Z,85.48
2022-10-30T05:43:02.015Z,85.50
2022-10-30T05:45:04.295Z,85.73
2022-10-30T05:47:06.390Z,85.46
2022-10-30T05:49:08.442Z,85.64
2022-10-30T05:51:10.310Z,85.51
2022-10-30T05:53:12.444Z,85.33
2022-10-30T05:55:14.380Z,85.64
2022-10-30T05:57:16.233Z,85.66
2022-10-30T05:59:18.352Z,85.81
2022-10-30T06:01:20.284Z,85.96
2022-10-30T06:03:22.195Z,85.80
2022-10-30T06:05:26.176Z,85.83
2022-10-30T06:07:28.114Z,85.28
2022-10-30T06:09:30.130Z,85.58
2022-10-30T06:11:34.042Z,85.72
2022-10-30T06:13:35.903Z,85.46
2022-10-30T06:15:39.791Z,85.49
2022-10-30T06:17:41.539Z,85.93
2022-10-30T06:19:44.016Z,85.59
2022-10-30T06:21:47.028Z,85.64
2022-10-30T06:23:49.177Z,85.24
2022-10-30T06:25:51.021Z,85.34
2022-10-30T06:27:53.168Z,85.15
2022-10-30T06:29:56.004Z,85.24
2022-10-30T06:31:59.792Z,85.48
2022-10-30T06:34:05.823Z,85.38
2022-10-30T06:36:08.927Z,85.30
2022-10-30T06:38:12.197Z,85.23
2022-10-30T06:40:14.586Z,84.94
2022-10-30T06:42:16.487Z,85.01
2022-10-30T06:44:19.613Z,84.75
2022-10-30T06:46:27.067Z,84.75
2022-10-30T06:48:33.623Z,84.88
2022-10-30T06:50:36.516Z,85.01
2022-10-30T06:52:39.690Z,84.55
2022-10-30T06:54:41.563Z,84.60
2022-10-30T06:56:43.467Z,84.47
2022-10-30T06:58:45.356Z,84.70
2022-10-30T07:00:47.272Z,84.45
2022-10-30T07:03:00.508Z,84.15
2022-10-30T07:05:03.321Z,83.91
2022-10-30T07:07:05.153Z,83.80
2022-10-30T07:09:07.241Z,83.79
2022-10-30T07:11:09.157Z,83.52
2022-10-30T07:13:11.040Z,83.51
2022-10-30T07:15:12.838Z,83.17
2022-10-30T07:17:14.731Z,83.43
2022-10-30T07:19:17.782Z,83.24
2022-10-30T07:21:19.741Z,82.74
2022-10-30T07:23:21.727Z,83.10
2022-10-30T07:25:23.838Z,83.22
2022-10-30T07:27:25.653Z,83.29
2022-10-30T07:29:28.469Z,82.96
2022-10-30T07:31:41.883Z,82.86
2022-10-30T07:33:53.054Z,83.30
2022-10-30T07:35:54.852Z,83.09
2022-10-30T07:37:56.885Z,83.29
2022-10-30T07:39:58.752Z,82.93
2022-10-30T07:42:00.652Z,83.01
2022-10-30T07:44:02.552Z,82.31
2022-10-30T07:46:04.578Z,82.19
2022-10-30T07:48:06.547Z,82.11
2022-10-30T07:50:09.089Z,81.51
2022-10-30T07:52:16.221Z,80.97
2022-10-30T07:54:28.602Z,81.66
2022-10-30T07:56:30.531Z,81.25
2022-10-30T07:58:32.490Z,80.57
2022-10-30T08:00:34.514Z,80.18
2022-10-30T08:02:37.333Z,80.05
2022-10-30T08:04:40.395Z,79.70
2022-10-30T08:06:42.405Z,79.83
2022-10-30T08:08:44.313Z,79.81
2022-10-30T08:10:46.233Z,79.40
2022-10-30T08:12:49.141Z,79.35
2022-10-30T08:14:52.540Z,79.15
2022-10-30T08:16:55.442Z,78.28
2022-10-30T08:18:57.398Z,77.78
2022-10-30T08:20:59.248Z,77.28
2022-10-30T08:23:01.622Z,77.36
2022-10-30T08:25:03.996Z,77.16
2022-10-30T08:27:05.947Z,76.89
2022-10-30T08:29:07.896Z,77.50
2022-10-30T08:31:09.910Z,76.14
2022-10-30T08:33:16.665Z,76.53
2022-10-30T08:35:21.731Z,76.24
2022-10-30T08:37:23.712Z,75.13
2022-10-30T08:39:27.582Z,75.28
2022-10-30T08:41:34.276Z,75.50
2022-10-30T08:43:36.338Z,75.96
2022-10-30T08:45:38.461Z,75.60
2022-10-30T08:47:40.369Z,75.25
2022-10-30T08:49:43.275Z,75.56
2022-10-30T08:51:46.238Z,75.48
2022-10-30T08:53:50.135Z,75.11
2022-10-30T08:55:55.826Z,73.99
2022-10-30T08:57:57.918Z,74.58
2022-10-30T08:59:59.979Z,73.12
2022-10-30T09:02:01.865Z,73.17
2022-10-30T09:04:05.017Z,73.49
2022-10-30T09:06:07.336Z,74.30
2022-10-30T09:08:09.311Z,74.42
2022-10-30T09:10:11.199Z,73.48
2022-10-30T09:12:13.146Z,73.49
2022-10-30T09:14:15.074Z,73.19
2022-10-30T09:16:17.174Z,73.03
2022-10-30T09:18:19.533Z,72.47
2022-10-30T09:20:21.400Z,71.68
2022-10-30T09:22:23.451Z,71.91
2022-10-30T09:24:25.483Z,71.81
2022-10-30T09:26:30.388Z,72.07
2022-10-30T09:28:33.369Z,70.57
2022-10-30T09:30:35.387Z,71.68
2022-10-30T09:32:42.971Z,70.16
2022-10-30T09:34:49.622Z,69.56
2022-10-30T09:36:59.572Z,69.39
2022-10-30T09:39:02.509Z,69.61
2022-10-30T09:41:30.966Z,70.41
2022-10-30T09:43:54.575Z,70.54
2022-10-30T09:46:22.342Z,70.72
2022-10-30T09:48:47.975Z,71.15
2022-10-30T09:51:22.071Z,70.61
2022-10-30T09:53:52.633Z,69.89
2022-10-30T09:56:14.917Z,69.88
2022-10-30T09:58:24.631Z,69.42
2022-10-30T10:01:07.356Z,70.63
2022-10-30T10:03:31.604Z,70.43
2022-10-30T10:05:45.080Z,69.87
2022-10-30T10:08:10.533Z,70.16
2022-10-30T10:10:37.722Z,69.96
2022-10-30T10:12:48.391Z,70.02
2022-10-30T10:14:51.391Z,70.02
2022-10-30T10:16:55.610Z,69.27
2022-10-30T10:19:09.235Z,70.35
2022-10-30T10:21:19.143Z,68.79
2022-10-30T10:23:32.599Z,68.77
2022-10-30T10:25:37.344Z,67.60
2022-10-30T10:27:45.264Z,66.77
2022-10-30T10:29:50.014Z,66.96
2022-10-30T10:32:11.203Z,66.49
2022-10-30T10:34:28.970Z,65.72
2022-10-30T10:36:48.534Z,66.50
2022-10-30T10:39:26.109Z,67.31
2022-10-30T10:41:53.602Z,67.29
2022-10-30T10:44:08.510Z,67.92
2022-10-30T10:46:13.216Z,68.05
2022-10-30T10:48:29.336Z,67.97
2022-10-30T10:50:47.466Z,67.41
2022-10-30T10:53:22.117Z,65.93
2022-10-30T10:55:28.958Z,65.95
2022-10-30T10:57:36.953Z,66.18
2022-10-30T10:59:43.999Z,66.50
2022-10-30T11:02:08.989Z,65.71
2022-10-30T11:04:40.012Z,65.82
2022-10-30T11:06:46.978Z,65.90
2022-10-30T11:08:49.913Z,64.74
2022-10-30T11:11:06.974Z,64.86
2022-10-30T11:13:14.816Z,65.07
2022-10-30T11:15:36.346Z,63.51
2022-10-30T11:17:45.809Z,63.98
2022-10-30T11:19:54.362Z,64.49
2022-10-30T11:21:57.791Z,64.54
2022-10-30T11:23:59.761Z,64.75
2022-10-30T11:26:03.075Z,65.37
2022-10-30T11:28:06.156Z,64.83
2022-10-30T11:30:18.915Z,65.06
2022-10-30T11:32:23.111Z,65.39
2022-10-30T11:34:31.822Z,65.27
2022-10-30T11:36:36.391Z,65.35
2022-10-30T11:38:38.618Z,66.21
2022-10-30T11:40:48.791Z,66.18
2022-10-30T11:42:56.526Z,66.61
2022-10-30T11:44:58.801Z,64.69
2022-10-30T11:47:01.530Z,63.42
2022-10-30T11:49:03.693Z,64.06
2022-10-30T11:51:06.426Z,63.69
2022-10-30T11:53:17.995Z,62.20
2022-10-30T11:55:27.136Z,62.74
2022-10-30T11:57:35.911Z,63.29
2022-10-30T11:59:37.949Z,64.01
2022-10-30T12:01:57.515Z,63.20
2022-10-30T12:04:23.599Z,62.85
2022-10-30T12:06:29.502Z,61.36
2022-10-30T12:08:31.361Z,61.88
2022-10-30T12:10:44.382Z,62.55
2022-10-30T12:12:51.007Z,61.37
2022-10-30T12:14:54.106Z,61.79
2022-10-30T12:16:57.566Z,61.44
2022-10-30T12:19:15.619Z,61.56
2022-10-30T12:21:20.330Z,61.57
2022-10-30T12:23:26.916Z,62.03
2022-10-30T12:25:31.102Z,60.89
2022-10-30T12:27:37.487Z,61.49
2022-10-30T12:30:14.889Z,60.60
2022-10-30T12:32:20.271Z,62.02
2022-10-30T12:34:46.411Z,62.11
2022-10-30T12:37:00.452Z,60.88
2022-10-30T12:39:15.477Z,61.26
2022-10-30T12:41:40.859Z,62.21
2022-10-30T12:43:51.666Z,62.21
2022-10-30T12:46:04.176Z,62.57
2022-10-30T12:48:42.053Z,62.22
2022-10-30T12:50:57.573Z,62.82
2022-10-30T12:53:20.944Z,63.36
2022-10-30T12:55:40.152Z,62.77
2022-10-30T12:57:57.417Z,62.97
2022-10-30T13:00:05.346Z,63.43
2022-10-30T13:02:21.104Z,63.70
2022-10-30T13:04:29.475Z,64.06
2022-10-30T13:06:35.704Z,63.95
2022-10-30T13:08:47.166Z,64.27
2022-10-30T13:11:19.764Z,65.55
2022-10-30T13:13:37.239Z,66.38
2022-10-30T13:15:48.783Z,66.09
2022-10-30T13:17:51.139Z,66.35
2022-10-30T13:19:52.995Z,67.93
2022-10-30T13:22:15.946Z,67.61
2022-10-30T13:24:44.286Z,67.42
2022-10-30T13:27:22.361Z,67.64
2022-10-30T13:29:40.397Z,68.48
2022-10-30T13:31:54.464Z,67.60
2022-10-30T13:34:17.982Z,67.12
2022-10-30T13:36:23.443Z,66.68
2022-10-30T13:38:30.772Z,66.98
2022-10-30T13:40:40.147Z,67.82
2022-10-30T13:42:47.575Z,68.00
2022-10-30T13:45:20.100Z,68.67
2022-10-30T13:47:33.983Z,68.61
2022-10-30T13:49:35.775Z,69.15
2022-10-30T13:51:43.609Z,70.15
2022-10-30T13:53:49.121Z,69.39
2022-10-30T13:55:51.427Z,69.12
2022-10-30T13:58:15.147Z,69.61
2022-10-30T14:00:59.683Z,68.66
2022-10-30T14:03:31.862Z,69.75
2022-10-30T14:05:58.116Z,69.31
2022-10-30T14:08:22.053Z,70.01
2022-10-30T14:10:47.913Z,70.11
2022-10-30T14:12:53.368Z,70.89
2022-10-30T14:14:56.403Z,71.36
2022-10-30T14:17:25.371Z,71.11
2022-10-30T14:19:27.886Z,70.27
2022-10-30T14:21:31.922Z,70.44
2022-10-30T14:23:38.086Z,71.54
2022-10-30T14:25:40.379Z,71.16
2022-10-30T14:27:43.082Z,71.66
2022-10-30T14:29:48.172Z,71.59
2022-10-30T14:31:50.184Z,70.74
2022-10-30T14:33:55.979Z,71.13
2022-10-30T14:36:25.355Z,71.19
2022-10-30T14:38:35.239Z,71.57
2022-10-30T14:40:56.510Z,73.34
2022-10-30T14:43:06.508Z,74.53
2022-10-30T14:45:17.136Z,73.50
2022-10-30T14:47:42.024Z,74.48
2022-10-30T14:49:48.663Z,74.48
2022-10-30T14:52:00.179Z,74.16
2022-10-30T14:54:18.688Z,73.67
2022-10-30T14:56:46.872Z,73.92
2022-10-30T14:59:17.295Z,73.75
2022-10-30T15:01:42.058Z,74.84
2022-10-30T15:04:13.291Z,75.23
2022-10-30T15:06:40.420Z,75.21
2022-10-30T15:08:58.590Z,75.79
2022-10-30T15:11:17.820Z,76.77
2022-10-30T15:13:23.230Z,76.38
2022-10-30T15:15:25.660Z,76.13
2022-10-30T15:17:37.048Z,76.12
2022-10-30T15:19:40.674Z,77.72
2022-10-30T15:21:46.027Z,77.34
2022-10-30T15:23:48.069Z,77.73
2022-10-30T15:25:54.200Z,78.45
2022-10-30T15:27:58.700Z,77.61
2022-10-30T15:30:04.615Z,77.99
2022-10-30T15:32:18.235Z,78.37
2022-10-30T15:34:23.356Z,79.00
2022-10-30T15:36:29.279Z,79.53
2022-10-30T15:38:31.175Z,79.11
2022-10-30T15:40:38.808Z,79.42
2022-10-30T15:42:41.117Z,79.30
2022-10-30T15:44:45.887Z,79.77
2022-10-30T15:46:53.215Z,79.72
2022-10-30T15:48:55.198Z,79.32
2022-10-30T15:51:15.620Z,80.17
2022-10-30T15:53:24.820Z,80.33
2022-10-30T15:55:30.131Z,80.44
2022-10-30T15:58:00.927Z,80.22
2022-10-30T16:02:27.363Z,80.44
2022-10-30T16:04:35.720Z,80.91
2022-10-30T16:06:39.052Z,81.16
2022-10-30T16:08:48.449Z,81.14
2022-10-30T16:10:58.201Z,80.94
2022-10-30T16:13:01.452Z,81.19
2022-10-30T16:15:17.590Z,81.76
2022-10-30T16:17:19.842Z,81.32
2022-10-30T16:19:29.172Z,81.31
2022-10-30T16:21:32.881Z,81.85
2022-10-30T16:23:46.987Z,81.81
2022-10-30T16:25:57.065Z,82.17
2022-10-30T16:27:59.559Z,81.88
2022-10-30T16:30:02.584Z,81.57
2022-10-30T16:34:26.024Z,81.58
2022-10-30T16:36:28.218Z,82.02
2022-10-30T16:38:37.291Z,81.98
2022-10-30T16:40:40.345Z,82.27
2022-10-30T16:42:49.651Z,82.53
2022-10-30T16:44:54.002Z,82.62
2022-10-30T16:46:58.013Z,82.54
2022-10-30T16:49:03.900Z,82.73
2022-10-30T16:51:07.154Z,82.96
2022-10-30T16:53:18.103Z,82.53
2022-10-30T16:55:22.797Z,82.75
2022-10-30T16:57:29.305Z,82.60
2022-10-30T16:59:44.313Z,82.30
2022-10-30T17:01:52.836Z,83.27
2022-10-30T17:03:56.530Z,83.19
2022-10-30T17:06:04.848Z,83.38
2022-10-30T17:08:31.426Z,83.23
2022-10-30T17:10:43.725Z,83.29
2022-10-30T17:12:47.144Z,83.37
2022-10-30T17:14:53.491Z,83.19
2022-10-30T17:17:02.290Z,83.46
2022-10-30T17:19:29.507Z,83.80
2022-10-30T17:21:42.327Z,83.65
2022-10-30T17:24:00.885Z,83.24
2022-10-30T17:26:11.998Z,83.37
2022-10-30T17:28:40.991Z,83.75
2022-10-30T17:30:44.166Z,84.06
2022-10-30T17:32:47.338Z,83.80
2022-10-30T17:35:02.004Z,83.85
2022-10-30T17:37:04.389Z,83.79
2022-10-30T17:39:08.398Z,83.60
2022-10-30T17:41:14.713Z,84.32
2022-10-30T17:43:16.960Z,84.56
2022-10-30T17:45:19.216Z,84.30
2022-10-30T17:47:21.383Z,84.38
2022-10-30T17:49:28.241Z,84.47
2022-10-30T17:51:32.412Z,83.91
2022-10-30T17:53:34.668Z,84.33
2022-10-30T17:55:38.948Z,83.79
2022-10-30T17:57:41.885Z,83.87
2022-10-30T17:59:44.128Z,84.11
2022-10-30T18:01:49.649Z,84.47
2022-10-30T18:03:53.593Z,83.55
2022-10-30T18:05:56.235Z,84.00
2022-10-30T18:08:00.599Z,84.30
2022-10-30T18:10:03.000Z,84.49
2022-10-30T18:12:06.910Z,83.96
2022-10-30T18:14:12.787Z,84.51
2022-10-30T18:16:20.366Z,84.76
2022-10-30T18:18:22.730Z,84.32
2022-10-30T18:20:27.495Z,85.15
2022-10-30T18:22:30.300Z,85.09
2022-10-30T18:24:32.723Z,85.28
2022-10-30T18:26:40.058Z,85.32
2022-10-30T18:28:43.103Z,85.35
2022-10-30T18:30:51.353Z,85.32
2022-10-30T18:32:53.597Z,85.18
2022-10-30T18:34:56.522Z,85.11
2022-10-30T18:36:58.684Z,84.99
2022-10-30T18:39:00.618Z,85.26
2022-10-30T18:41:03.867Z,85.29
2022-10-30T18:43:06.116Z,85.08
2022-10-30T18:45:21.632Z,84.66
2022-10-30T18:47:24.068Z,84.47
2022-10-30T18:49:29.456Z,84.72
2022-10-30T18:51:32.033Z,84.76
2022-10-30T18:53:35.893Z,84.38
2022-10-30T18:55:40.510Z,84.54
2022-10-30T18:57:42.728Z,84.83
2022-10-30T18:59:45.051Z,85.08
2022-10-30T19:01:51.247Z,84.64
2022-10-30T19:03:53.674Z,84.70
2022-10-30T19:05:55.837Z,84.74
2022-10-30T19:08:10.034Z,84.84
2022-10-30T19:10:18.736Z,84.98
2022-10-30T19:12:21.222Z,85.21
2022-10-30T19:14:25.125Z,84.61
2022-10-30T19:16:28.013Z,84.89
2022-10-30T19:18:31.969Z,84.75
2022-10-30T19:20:58.402Z,84.67
2022-10-30T19:23:06.358Z,84.37
2022-10-30T19:25:19.705Z,84.79
2022-10-30T19:27:25.917Z,84.86
2022-10-30T19:29:29.132Z,84.54
2022-10-30T19:31:32.568Z,84.51
2022-10-30T19:33:38.108Z,84.44
2022-10-30T19:35:40.821Z,84.82
2022-10-30T19:37:43.951Z,85.01
2022-10-30T19:39:55.404Z,84.87
2022-10-30T19:41:57.620Z,84.52
2022-10-30T19:44:00.155Z,84.81
2022-10-30T19:46:16.009Z,84.99
2022-10-30T19:50:47.780Z,84.99
2022-10-30T19:52:52.723Z,84.50
2022-10-30T19:54:59.292Z,84.85
2022-10-30T19:57:13.972Z,84.83
2022-10-30T19:59:31.170Z,84.66
2022-10-30T20:01:35.727Z,84.79
2022-10-30T20:03:48.501Z,84.92
2022-10-30T20:05:56.501Z,85.30
2022-10-30T20:08:06.251Z,84.89
2022-10-30T20:10:20.028Z,85.16
2022-10-30T20:12:23.330Z,85.34
2022-10-30T20:14:30.543Z,85.19
2022-10-30T20:16:35.181Z,84.98
2022-10-30T20:18:37.746Z,85.12
2022-10-30T20:20:48.353Z,84.91
2022-10-30T20:22:51.146Z,85.18
2022-10-30T20:24:53.228Z,85.17
2022-10-30T20:27:01.430Z,85.46
2022-10-30T20:29:17.035Z,85.08
2022-10-30T20:31:23.153Z,85.16
2022-10-30T20:33:28.019Z,85.43
2022-10-30T20:35:30.207Z,85.58
2022-10-30T20:37:32.557Z,85.03
2022-10-30T20:39:34.926Z,85.03
2022-10-30T20:41:40.633Z,85.52
2022-10-30T20:43:42.804Z,85.48
2022-10-30T20:45:45.119Z,85.57
2022-10-30T20:47:48.098Z,85.03
2022-10-30T20:49:50.047Z,85.73
2022-10-30T20:51:52.415Z,85.74
2022-10-30T20:53:54.663Z,85.56
2022-10-30T20:55:57.029Z,85.23
2022-10-30T20:57:59.607Z,84.80
2022-10-30T21:00:01.952Z,84.36
2022-10-30T21:02:07.075Z,84.69
2022-10-30T21:04:09.374Z,84.93
2022-10-30T21:06:11.308Z,85.02
2022-10-30T21:08:14.917Z,84.93
2022-10-30T21:10:17.328Z,85.03
2022-10-30T21:12:20.844Z,85.36
2022-10-30T21:14:25.922Z,85.29
2022-10-30T21:16:31.201Z,85.47
2022-10-30T21:18:33.694Z,85.92
2022-10-30T21:20:37.691Z,85.95
2022-10-30T21:22:43.158Z,85.76
2022-10-30T21:24:48.484Z,86.10
2022-10-30T21:26:50.833Z,85.59
2022-10-30T21:29:00.447Z,85.38
2022-10-30T21:31:18.387Z,85.24
2022-10-30T21:33:20.475Z,85.69
2022-10-30T21:35:22.631Z,85.40
2022-10-30T21:37:29.153Z,86.16
2022-10-30T21:39:38.032Z,86.12
2022-10-30T21:41:40.118Z,85.99
2022-10-30T21:43:42.736Z,85.78
2022-10-30T21:46:03.363Z,86.37
2022-10-30T21:48:09.039Z,86.40
2022-10-30T21:50:12.896Z,86.15
2022-10-30T21:52:15.058Z,85.92
2022-10-30T21:54:18.663Z,85.48
2022-10-30T21:56:28.556Z,85.79
2022-10-30T21:58:30.827Z,85.77
2022-10-30T22:00:33.786Z,85.75
2022-10-30T22:02:38.163Z,85.86
2022-10-30T22:04:47.192Z,85.52
2022-10-30T22:06:51.402Z,85.68
2022-10-30T22:08:54.680Z,85.74
2022-10-30T22:10:56.492Z,85.90
2022-10-30T22:12:58.332Z,85.66
2022-10-30T22:15:11.956Z,85.46
2022-10-30T22:17:21.053Z,85.82
2022-10-30T22:19:34.809Z,85.91
2022-10-30T22:21:42.445Z,85.70
2022-10-30T22:23:48.765Z,85.73
2022-10-30T22:26:00.267Z,85.37
2022-10-30T22:28:05.135Z,85.56
2022-10-30T22:30:09.174Z,85.40
2022-10-30T22:32:11.200Z,85.86
2022-10-30T22:34:22.298Z,86.09
2022-10-30T22:36:32.260Z,85.92
2022-10-30T22:38:37.385Z,85.59
2022-10-30T22:40:43.221Z,85.63
2022-10-30T22:42:48.103Z,85.79
2022-10-30T22:45:02.320Z,85.51
2022-10-30T22:47:14.801Z,86.07
2022-10-30T22:49:19.345Z,85.93
2022-10-30T22:51:32.528Z,85.64
2022-10-30T22:53:35.988Z,85.95
2022-10-30T22:55:48.159Z,86.01
2022-10-30T23:00:34.129Z,86.48
2022-10-30T23:02:36.127Z,86.15
2022-10-30T23:04:39.132Z,85.68
2022-10-30T23:06:41.451Z,85.83
2022-10-30T23:08:43.439Z,85.76
2022-10-30T23:10:51.993Z,85.83
2022-10-30T23:13:02.154Z,86.21
2022-10-30T23:15:15.616Z,86.37
2022-10-30T23:17:18.610Z,86.00
2022-10-30T23:19:20.409Z,86.08
2022-10-30T23:21:32.840Z,86.32
2022-10-30T23:23:46.907Z,86.02
2022-10-30T23:25:48.839Z,86.13
2022-10-30T23:27:53.161Z,86.15
2022-10-30T23:29:55.061Z,86.46
2022-10-30T23:31:57.024Z,85.61
2022-10-30T23:34:07.520Z,86.34
2022-10-30T23:36:18.893Z,86.03
2022-10-30T23:38:23.606Z,85.94
2022-10-30T23:40:25.486Z,86.25
2022-10-30T23:42:27.405Z,86.20
2022-10-30T23:44:29.316Z,86.12
2022-10-30T23:46:31.260Z,85.65
2022-10-30T23:48:33.139Z,85.44
2022-10-30T23:50:36.099Z,86.46
2022-10-30T23:52:37.983Z,85.96
2022-10-30T23:54:39.803Z,85.78
2022-10-30T23:56:41.802Z,86.09
2022-10-30T23:58:45.205Z,86.15
